createdAt,value
2017-07-12T00:00:03.193Z,92.16
2017-07-12T00:01:02.822Z,90.67
2017-07-12T00:02:02.819Z,90.48
2017-07-12T00:03:03.157Z,89.81
2017-07-12T00:04:03.138Z,89.43
2017-07-12T00:05:02.821Z,89.15
2017-07-12T00:06:03.127Z,87.04
2017-07-12T00:07:02.796Z,87.14
2017-07-12T00:08:03.103Z,88.29
2017-07-12T00:09:03.127Z,86.47
2017-07-12T00:10:03.132Z,85.32
2017-07-12T00:11:03.111Z,84.41
2017-07-12T00:12:02.773Z,83.26
2017-07-12T00:13:02.768Z,82.59
2017-07-12T00:14:02.768Z,82.97
2017-07-12T00:15:02.758Z,82.49
2017-07-12T00:16:02.753Z,82.3
2017-07-12T00:17:03.080Z,81.82
2017-07-12T00:18:02.761Z,80.96
2017-07-12T00:19:02.745Z,81.92
2017-07-12T00:20:03.078Z,81.92
2017-07-12T00:21:02.733Z,81.82
2017-07-12T00:22:02.728Z,82.3
2017-07-12T00:23:02.726Z,83.26
2017-07-12T00:24:02.734Z,84.5
2017-07-12T00:25:03.049Z,82.92
2017-07-12T00:26:03.053Z,82.49
2017-07-12T00:27:03.036Z,82.11
2017-07-12T00:28:02.703Z,80.58
2017-07-12T00:29:02.702Z,81.15
2017-07-12T00:30:03.031Z,82.59
2017-07-12T00:31:02.693Z,82.78
2017-07-12T00:32:02.684Z,82.59
2017-07-12T00:33:03.010Z,82.68
2017-07-12T00:34:03.005Z,81.63
2017-07-12T00:35:02.691Z,82.59
2017-07-12T00:36:02.997Z,81.48
2017-07-12T00:37:03.013Z,80.52
2017-07-12T00:38:02.662Z,80.48
2017-07-12T00:39:03.000Z,80.81
2017-07-12T00:40:03.048Z,81.29
2017-07-12T00:41:02.999Z,81.67
2017-07-12T00:42:02.976Z,81.67
2017-07-12T00:43:02.970Z,81.38
2017-07-12T00:44:02.653Z,80.14
2017-07-12T00:45:02.636Z,80.81
2017-07-12T00:46:02.629Z,80.62
2017-07-12T00:47:02.627Z,80.62
2017-07-12T00:48:02.947Z,80.52
2017-07-12T00:49:02.618Z,80.14
2017-07-12T00:50:02.613Z,81.38
2017-07-12T00:51:02.626Z,82.34
2017-07-12T00:52:02.606Z,82.34
2017-07-12T00:53:02.601Z,82.63
2017-07-12T00:54:02.602Z,82.82
2017-07-12T00:55:02.922Z,82.92
2017-07-12T00:56:02.915Z,82.43
2017-07-12T00:57:02.586Z,83.01
2017-07-12T00:58:02.591Z,83.97
2017-07-12T00:59:02.581Z,83.59
2017-07-12T01:00:02.577Z,84.06
2017-07-12T01:01:02.585Z,83.78
2017-07-12T01:02:02.893Z,83.01
2017-07-12T01:03:02.564Z,83.78
2017-07-12T01:04:02.897Z,84.83
2017-07-12T01:05:02.563Z,84.92
2017-07-12T01:06:02.573Z,84.83
2017-07-12T01:07:02.547Z,85.69
2017-07-12T01:08:02.871Z,86.17
2017-07-12T01:09:02.539Z,85.69
2017-07-12T01:10:02.910Z,85.6
2017-07-12T01:11:02.862Z,85.84
2017-07-12T01:12:02.853Z,84.12
2017-07-12T01:13:02.524Z,84.59
2017-07-12T01:14:02.529Z,85.75
2017-07-12T01:15:02.517Z,86.41
2017-07-12T01:16:02.512Z,87.47
2017-07-12T01:17:02.507Z,87.9
2017-07-12T01:18:02.837Z,88.57
2017-07-12T01:19:02.828Z,89.24
2017-07-12T01:20:02.494Z,88.38
2017-07-12T01:21:02.819Z,88.38
2017-07-12T01:22:02.814Z,89.05
2017-07-12T01:23:02.824Z,89.62
2017-07-12T01:24:02.807Z,89.15
2017-07-12T01:25:02.803Z,88.67
2017-07-12T01:26:02.798Z,89.24
2017-07-12T01:27:02.802Z,88.38
2017-07-12T01:28:02.467Z,88.19
2017-07-12T01:29:02.460Z,89.15
2017-07-12T01:30:02.455Z,89.34
2017-07-12T01:31:02.458Z,89.91
2017-07-12T01:32:02.772Z,89.05
2017-07-12T01:33:02.442Z,89.34
2017-07-12T01:34:02.439Z,90.24
2017-07-12T01:35:02.436Z,89.29
2017-07-12T01:36:02.431Z,89.38
2017-07-12T01:37:02.753Z,89.34
2017-07-12T01:38:02.752Z,90.77
2017-07-12T01:39:02.753Z,92.11
2017-07-12T01:40:02.756Z,92.11
2017-07-12T01:41:02.738Z,93.45
2017-07-12T01:42:02.407Z,92.59
2017-07-12T01:43:02.402Z,92.88
2017-07-12T01:44:02.399Z,92.69
2017-07-12T01:45:02.392Z,93.35
2017-07-12T01:46:02.773Z,94.7
2017-07-12T01:47:02.386Z,93.55
2017-07-12T01:48:02.712Z,93.64
2017-07-12T01:49:02.394Z,93.45
2017-07-12T01:50:02.699Z,92.49
2017-07-12T01:51:02.380Z,92.69
2017-07-12T01:52:02.689Z,92.59
2017-07-12T01:53:02.359Z,92.21
2017-07-12T01:54:02.355Z,89.91
2017-07-12T01:55:02.352Z,89.72
2017-07-12T01:56:02.673Z,89.29
2017-07-12T01:57:02.344Z,90.05
2017-07-12T01:58:02.665Z,89.58
2017-07-12T01:59:02.334Z,89.38
2017-07-12T02:00:02.329Z,87.95
2017-07-12T02:01:02.324Z,87.37
2017-07-12T02:02:02.320Z,88.04
2017-07-12T02:03:02.317Z,88.04
2017-07-12T02:04:02.643Z,87.56
2017-07-12T02:05:02.309Z,86.7
2017-07-12T02:06:02.305Z,86.13
2017-07-12T02:07:02.300Z,85.55
2017-07-12T02:08:02.298Z,86.61
2017-07-12T02:09:02.291Z,85.84
2017-07-12T02:10:02.288Z,85.36
2017-07-12T02:11:02.284Z,85.17
2017-07-12T02:12:02.606Z,84.69
2017-07-12T02:13:02.276Z,83.59
2017-07-12T02:14:02.598Z,84.79
2017-07-12T02:15:02.597Z,84.98
2017-07-12T02:16:02.282Z,85.08
2017-07-12T02:17:02.260Z,84.98
2017-07-12T02:18:02.582Z,85.94
2017-07-12T02:19:02.579Z,83.54
2017-07-12T02:20:02.573Z,83.39
2017-07-12T02:21:02.251Z,82.97
2017-07-12T02:22:02.575Z,85.08
2017-07-12T02:23:02.233Z,85.84
2017-07-12T02:24:02.230Z,85.84
2017-07-12T02:25:02.555Z,87.76
2017-07-12T02:26:02.609Z,87.47
2017-07-12T02:27:02.558Z,85.46
2017-07-12T02:28:02.564Z,85.84
2017-07-12T02:29:02.539Z,86.8
2017-07-12T02:30:02.532Z,87.56
2017-07-12T02:31:02.204Z,87.18
2017-07-12T02:32:02.203Z,87.95
2017-07-12T02:33:02.195Z,88.04
2017-07-12T02:34:02.519Z,88.52
2017-07-12T02:35:02.187Z,87.56
2017-07-12T02:36:02.182Z,86.13
2017-07-12T02:37:02.177Z,86.8
2017-07-12T02:38:02.174Z,87.56
2017-07-12T02:39:02.171Z,85.65
2017-07-12T02:40:02.169Z,85.75
2017-07-12T02:41:02.163Z,87.03
2017-07-12T02:42:02.158Z,87.32
2017-07-12T02:43:02.486Z,85.79
2017-07-12T02:44:02.478Z,84.64
2017-07-12T02:45:02.147Z,83.11
2017-07-12T02:46:02.142Z,83.97
2017-07-12T02:47:02.138Z,85.5
2017-07-12T02:48:02.136Z,85.31
2017-07-12T02:49:02.132Z,84.06
2017-07-12T02:50:02.471Z,84.45
2017-07-12T02:51:02.127Z,83.39
2017-07-12T02:52:02.451Z,82.82
2017-07-12T02:53:02.117Z,82.82
2017-07-12T02:54:02.113Z,82.43
2017-07-12T02:55:02.108Z,82.06
2017-07-12T02:56:02.435Z,82.15
2017-07-12T02:57:02.430Z,81.96
2017-07-12T02:58:02.098Z,82.15
2017-07-12T02:59:02.093Z,82.34
2017-07-12T03:00:02.088Z,82.15
2017-07-12T03:01:02.416Z,82.53
2017-07-12T03:02:02.406Z,82.63
2017-07-12T03:03:02.079Z,82.53
2017-07-12T03:04:02.073Z,83.2
2017-07-12T03:05:02.405Z,82.92
2017-07-12T03:06:02.064Z,82.87
2017-07-12T03:07:02.390Z,84.59
2017-07-12T03:08:02.388Z,85.41
2017-07-12T03:09:02.056Z,86.13
2017-07-12T03:10:02.380Z,86.61
2017-07-12T03:11:02.378Z,88.04
2017-07-12T03:12:02.042Z,89.29
2017-07-12T03:13:02.038Z,89.29
2017-07-12T03:14:02.035Z,88.52
2017-07-12T03:15:02.363Z,88.43
2017-07-12T03:16:02.030Z,88.52
2017-07-12T03:17:02.044Z,88.33
2017-07-12T03:18:02.022Z,89.76
2017-07-12T03:19:02.019Z,89.38
2017-07-12T03:20:02.020Z,88.43
2017-07-12T03:21:02.351Z,89
2017-07-12T03:22:02.008Z,89.19
2017-07-12T03:23:02.001Z,89.48
2017-07-12T03:24:01.996Z,89.86
2017-07-12T03:25:01.994Z,89.29
2017-07-12T03:26:01.989Z,89.38
2017-07-12T03:27:01.992Z,90.15
2017-07-12T03:28:01.983Z,90.53
2017-07-12T03:29:02.305Z,90.24
2017-07-12T03:30:01.990Z,89.38
2017-07-12T03:31:01.984Z,89.43
2017-07-12T03:32:01.966Z,89.23
2017-07-12T03:33:01.961Z,88.56
2017-07-12T03:34:01.959Z,88.47
2017-07-12T03:35:02.281Z,88.56
2017-07-12T03:36:02.009Z,88.56
2017-07-12T03:37:01.946Z,88.76
2017-07-12T03:38:01.963Z,89.43
2017-07-12T03:39:02.269Z,90.19
2017-07-12T03:40:02.276Z,90.09
2017-07-12T03:41:01.944Z,88.56
2017-07-12T03:42:01.928Z,88.18
2017-07-12T03:43:02.254Z,88.28
2017-07-12T03:44:01.945Z,88.56
2017-07-12T03:45:02.247Z,88.56
2017-07-12T03:46:01.912Z,90.09
2017-07-12T03:47:01.906Z,90.09
2017-07-12T03:48:02.237Z,91.25
2017-07-12T03:49:01.899Z,92.11
2017-07-12T03:50:01.898Z,91.63
2017-07-12T03:51:01.894Z,91.82
2017-07-12T03:52:02.218Z,92.01
2017-07-12T03:53:01.885Z,93.93
2017-07-12T03:54:01.883Z,94.6
2017-07-12T03:55:01.877Z,93.64
2017-07-12T03:56:02.210Z,94.4
2017-07-12T03:57:02.219Z,95.46
2017-07-12T03:58:01.867Z,95.56
2017-07-12T03:59:01.862Z,95.03
2017-07-12T04:00:01.858Z,94.98
2017-07-12T04:01:02.198Z,96.8
2017-07-12T04:02:02.182Z,97.95
2017-07-12T04:03:01.847Z,99
2017-07-12T04:04:01.842Z,99.33
2017-07-12T04:05:01.838Z,97.61
2017-07-12T04:06:01.837Z,97.04
2017-07-12T04:07:01.833Z,97.42
2017-07-12T04:08:02.158Z,98.09
2017-07-12T04:09:02.155Z,98.19
2017-07-12T04:10:02.149Z,99.99
2017-07-12T04:11:01.821Z,99.99
2017-07-12T04:12:01.811Z,99.99
2017-07-12T04:13:01.808Z,99.99
2017-07-12T04:14:01.805Z,99.99
2017-07-12T04:15:01.799Z,99.99
2017-07-12T04:16:02.128Z,99.99
2017-07-12T04:17:02.121Z,99.99
2017-07-12T04:18:01.801Z,99.99
2017-07-12T04:19:02.109Z,99.99
2017-07-12T04:20:02.108Z,99.99
2017-07-12T04:21:01.777Z,99.99
2017-07-12T04:22:02.098Z,99.99
2017-07-12T04:23:01.768Z,99.99
2017-07-12T04:24:01.771Z,99.99
2017-07-12T04:25:01.760Z,99.99
2017-07-12T04:26:01.754Z,99.99
2017-07-12T04:27:02.081Z,99.99
2017-07-12T04:28:01.761Z,99.99
2017-07-12T04:29:01.766Z,99.99
2017-07-12T04:30:01.739Z,99.99
2017-07-12T04:31:01.737Z,99.99
2017-07-12T04:32:01.746Z,99.99
2017-07-12T04:33:01.727Z,99.99
2017-07-12T04:34:02.054Z,99.99
2017-07-12T04:35:01.719Z,99.99
2017-07-12T04:36:01.720Z,99.99
2017-07-12T04:37:02.046Z,99.99
2017-07-12T04:38:01.710Z,99.99
2017-07-12T04:39:01.725Z,99.99
2017-07-12T04:40:02.029Z,99.99
2017-07-12T04:41:01.698Z,99.99
2017-07-12T04:42:01.693Z,99.99
2017-07-12T04:43:01.689Z,99.99
2017-07-12T04:44:01.685Z,99.99
2017-07-12T04:45:01.683Z,99.99
2017-07-12T04:46:02.008Z,99.99
2017-07-12T04:47:01.676Z,99.99
2017-07-12T04:48:01.670Z,99.99
2017-07-12T04:49:01.665Z,99.99
2017-07-12T04:50:01.686Z,99.99
2017-07-12T04:51:01.657Z,99.99
2017-07-12T04:52:01.663Z,99.99
2017-07-12T04:53:02.003Z,99.99
2017-07-12T04:54:01.646Z,99.99
2017-07-12T04:55:01.972Z,99.99
2017-07-12T04:56:02.024Z,99.99
2017-07-12T04:57:01.966Z,99.99
2017-07-12T04:58:01.962Z,99.99
2017-07-12T04:59:01.625Z,99.99
2017-07-12T05:00:01.623Z,99.99
2017-07-12T05:01:01.958Z,99.99
2017-07-12T05:02:01.615Z,99.99
2017-07-12T05:03:01.609Z,99.99
2017-07-12T05:04:01.605Z,99.99
2017-07-12T05:05:01.602Z,99.99
2017-07-12T05:06:01.599Z,99.99
2017-07-12T05:07:01.595Z,99.99
2017-07-12T05:08:01.919Z,99.99
2017-07-12T05:09:01.600Z,99.99
2017-07-12T05:10:01.915Z,99.99
2017-07-12T05:11:01.581Z,99.99
2017-07-12T05:12:01.578Z,99.99
2017-07-12T05:13:01.913Z,99.99
2017-07-12T05:14:01.901Z,99.99
2017-07-12T05:15:01.573Z,99.99
2017-07-12T05:16:01.559Z,99.99
2017-07-12T05:17:01.558Z,99.99
2017-07-12T05:18:01.881Z,99.99
2017-07-12T05:19:01.556Z,99.99
2017-07-12T05:20:01.546Z,99.99
2017-07-12T05:21:01.540Z,99.99
2017-07-12T05:22:01.538Z,99.99
2017-07-12T05:23:01.536Z,99.99
2017-07-12T05:24:01.530Z,99.99
2017-07-12T05:25:01.873Z,99.99
2017-07-12T05:26:01.521Z,99.99
2017-07-12T05:27:01.851Z,99.99
2017-07-12T05:28:01.516Z,99.99
2017-07-12T05:29:01.842Z,99.99
2017-07-12T05:30:01.509Z,99.99
2017-07-12T05:31:01.508Z,99.99
2017-07-12T05:32:01.516Z,99.99
2017-07-12T05:33:01.499Z,99.99
2017-07-12T05:34:01.495Z,99.99
2017-07-12T05:35:01.491Z,99.99
2017-07-12T05:36:01.491Z,99.99
2017-07-12T05:37:01.818Z,99.77
2017-07-12T05:38:01.482Z,98.52
2017-07-12T05:39:01.476Z,97.71
2017-07-12T05:40:01.803Z,96.18
2017-07-12T05:41:01.804Z,96.27
2017-07-12T05:42:01.813Z,96.99
2017-07-12T05:43:01.766Z,96.22
2017-07-12T05:44:01.462Z,95.36
2017-07-12T05:45:01.460Z,94.31
2017-07-12T05:46:01.456Z,93.35
2017-07-12T05:47:01.780Z,92.29
2017-07-12T05:48:01.452Z,92.1
2017-07-12T05:49:01.779Z,92.72
2017-07-12T05:50:01.775Z,92.05
2017-07-12T05:51:01.771Z,91.19
2017-07-12T05:52:01.442Z,90.32
2017-07-12T05:53:01.438Z,89.84
2017-07-12T05:54:01.765Z,88.69
2017-07-12T05:55:01.436Z,87.68
2017-07-12T05:56:01.433Z,86.24
2017-07-12T05:57:01.429Z,86.52
2017-07-12T05:58:01.425Z,84.6
2017-07-12T05:59:01.425Z,84.12
2017-07-12T06:00:01.761Z,83.84
2017-07-12T06:01:01.422Z,85.18
2017-07-12T06:02:01.417Z,85.08
2017-07-12T06:03:01.418Z,83.7
2017-07-12T06:04:01.419Z,83.6
2017-07-12T06:05:01.425Z,84.95
2017-07-12T06:06:01.411Z,85.04
2017-07-12T06:07:01.411Z,84.75
2017-07-12T06:08:01.405Z,83.8
2017-07-12T06:09:01.735Z,84.66
2017-07-12T06:10:01.403Z,85.24
2017-07-12T06:11:01.400Z,86.19
2017-07-12T06:12:01.726Z,85.24
2017-07-12T06:13:01.733Z,85.04
2017-07-12T06:14:01.721Z,85.52
2017-07-12T06:15:01.393Z,85.71
2017-07-12T06:16:01.391Z,84.27
2017-07-12T06:17:01.387Z,83.7
2017-07-12T06:18:01.387Z,84.47
2017-07-12T06:19:01.386Z,85.52
2017-07-12T06:20:01.714Z,84.95
2017-07-12T06:21:01.380Z,84.47
2017-07-12T06:22:01.385Z,85.42
2017-07-12T06:23:01.377Z,83.74
2017-07-12T06:24:01.718Z,84.03
2017-07-12T06:25:01.374Z,83.74
2017-07-12T06:26:01.374Z,83.36
2017-07-12T06:27:01.702Z,83.74
2017-07-12T06:28:01.367Z,83.16
2017-07-12T06:29:01.368Z,82.4
2017-07-12T06:30:01.379Z,81.43
2017-07-12T06:31:01.385Z,82.2
2017-07-12T06:32:01.381Z,82.78
2017-07-12T06:33:01.361Z,82.78
2017-07-12T06:34:01.687Z,81.43
2017-07-12T06:35:01.357Z,81.63
2017-07-12T06:36:01.355Z,80.76
2017-07-12T06:37:01.353Z,80.76
2017-07-12T06:38:01.355Z,81.15
2017-07-12T06:39:01.681Z,80.13
2017-07-12T06:40:01.349Z,81.09
2017-07-12T06:41:01.350Z,79.65
2017-07-12T06:42:01.347Z,80.13
2017-07-12T06:43:01.347Z,79.75
2017-07-12T06:44:01.345Z,79.02
2017-07-12T06:45:01.352Z,76.61
2017-07-12T06:46:01.345Z,76.26
2017-07-12T06:47:01.670Z,77.17
2017-07-12T06:48:01.339Z,74.57
2017-07-12T06:49:01.338Z,72.97
2017-07-12T06:50:01.339Z,71.76
2017-07-12T06:51:01.668Z,70.06
2017-07-12T06:52:01.337Z,68.45
2017-07-12T06:53:01.351Z,68.16
2017-07-12T06:54:01.336Z,67.88
2017-07-12T06:55:01.338Z,65.88
2017-07-12T06:56:01.667Z,64.53
2017-07-12T06:57:01.337Z,63.89
2017-07-12T06:58:01.683Z,63.34
2017-07-12T06:59:01.671Z,61.51
2017-07-12T07:00:01.354Z,61.44
2017-07-12T07:01:01.340Z,62.37
2017-07-12T07:02:01.361Z,61.41
2017-07-12T07:03:01.341Z,62.18
2017-07-12T07:04:01.343Z,63.6
2017-07-12T07:05:01.675Z,64.05
2017-07-12T07:06:01.675Z,62.63
2017-07-12T07:07:01.348Z,62.54
2017-07-12T07:08:01.351Z,62.54
2017-07-12T07:09:01.702Z,62.15
2017-07-12T07:10:01.349Z,64.08
2017-07-12T07:11:01.353Z,64.05
2017-07-12T07:12:01.683Z,64.15
2017-07-12T07:13:01.355Z,63.28
2017-07-12T07:14:01.354Z,64.63
2017-07-12T07:15:01.686Z,64.72
2017-07-12T07:16:01.378Z,66.27
2017-07-12T07:17:01.362Z,64.28
2017-07-12T07:18:01.367Z,61.44
2017-07-12T07:19:01.362Z,58.7
2017-07-12T07:20:01.370Z,55.66
2017-07-12T07:21:01.391Z,54.45
2017-07-12T07:22:01.716Z,51.76
2017-07-12T07:23:01.371Z,50.07
2017-07-12T07:24:01.371Z,50.07
2017-07-12T07:25:01.373Z,50.26
2017-07-12T07:26:01.394Z,49.05
2017-07-12T07:27:01.402Z,51.74
2017-07-12T07:28:01.715Z,53.81
2017-07-12T07:29:01.713Z,55.21
2017-07-12T07:30:01.719Z,55.87
2017-07-12T07:31:01.393Z,58.45
2017-07-12T07:32:01.396Z,59.28
2017-07-12T07:33:01.396Z,60.41
2017-07-12T07:34:01.729Z,60.99
2017-07-12T07:35:01.401Z,61.35
2017-07-12T07:36:01.424Z,62.31
2017-07-12T07:37:01.768Z,62.86
2017-07-12T07:38:01.409Z,63.15
2017-07-12T07:39:01.412Z,64.28
2017-07-12T07:40:01.414Z,64.18
2017-07-12T07:41:01.414Z,65.05
2017-07-12T07:42:01.746Z,66.01
2017-07-12T07:43:01.417Z,64.66
2017-07-12T07:44:01.417Z,65.24
2017-07-12T07:45:01.422Z,65.05
2017-07-12T07:46:01.757Z,67.55
2017-07-12T07:47:01.777Z,67.07
2017-07-12T07:48:01.768Z,64.47
2017-07-12T07:49:01.441Z,64.47
2017-07-12T07:50:01.428Z,66.36
2017-07-12T07:51:01.449Z,66.17
2017-07-12T07:52:01.450Z,68.48
2017-07-12T07:53:01.432Z,67.33
2017-07-12T07:54:01.758Z,66.39
2017-07-12T07:55:01.763Z,64.37
2017-07-12T07:56:01.764Z,65.24
2017-07-12T07:57:01.440Z,64.47
2017-07-12T07:58:01.767Z,63.92
2017-07-12T07:59:01.437Z,63.24
2017-07-12T08:00:01.439Z,63.92
2017-07-12T08:01:01.771Z,62.66
2017-07-12T08:02:01.442Z,61.9
2017-07-12T08:03:01.463Z,63.7
2017-07-12T08:04:01.772Z,64.31
2017-07-12T08:05:01.445Z,63.73
2017-07-12T08:06:01.448Z,64.31
2017-07-12T08:07:01.447Z,63.54
2017-07-12T08:08:01.450Z,63.06
2017-07-12T08:09:01.777Z,63.34
2017-07-12T08:10:01.451Z,63.5
2017-07-12T08:11:01.779Z,62.93
2017-07-12T08:12:01.453Z,64.82
2017-07-12T08:13:01.455Z,63.95
2017-07-12T08:14:01.456Z,64.21
2017-07-12T08:15:02.332Z,64.4
2017-07-12T08:16:01.455Z,64.47
2017-07-12T08:17:01.456Z,64.66
2017-07-12T08:18:01.458Z,66.01
2017-07-12T08:19:01.457Z,66.58
2017-07-12T08:20:01.458Z,68.32
2017-07-12T08:21:01.468Z,67.93
2017-07-12T08:22:01.801Z,68.13
2017-07-12T08:23:01.787Z,67.97
2017-07-12T08:24:01.457Z,67.29
2017-07-12T08:25:01.468Z,67.97
2017-07-12T08:26:01.461Z,66.33
2017-07-12T08:27:01.786Z,64.4
2017-07-12T08:28:01.483Z,64.86
2017-07-12T08:29:01.469Z,66.2
2017-07-12T08:30:01.463Z,67.16
2017-07-12T08:31:01.465Z,68.6
2017-07-12T08:32:01.462Z,66.71
2017-07-12T08:33:01.807Z,67.19
2017-07-12T08:34:01.460Z,69.6
2017-07-12T08:35:01.461Z,69.15
2017-07-12T08:36:01.792Z,67.61
2017-07-12T08:37:01.463Z,64.47
2017-07-12T08:38:01.463Z,62.54
2017-07-12T08:39:01.791Z,63.31
2017-07-12T08:40:01.462Z,64.18
2017-07-12T08:41:01.795Z,64.86
2017-07-12T08:42:01.464Z,64.21
2017-07-12T08:43:01.795Z,63.15
2017-07-12T08:44:01.800Z,64.11
2017-07-12T08:45:01.794Z,66.94
2017-07-12T08:46:01.468Z,64.05
2017-07-12T08:47:01.477Z,62.6
2017-07-12T08:48:01.823Z,64.18
2017-07-12T08:49:01.798Z,62.44
2017-07-12T08:50:01.810Z,59.86
2017-07-12T08:51:01.796Z,59.09
2017-07-12T08:52:01.819Z,59.19
2017-07-12T08:53:01.471Z,56.87
2017-07-12T08:54:01.473Z,56.39
2017-07-12T08:55:01.475Z,58.42
2017-07-12T08:56:01.475Z,58.51
2017-07-12T08:57:01.478Z,58.7
2017-07-12T08:58:01.476Z,53.69
2017-07-12T08:59:01.479Z,55.81
2017-07-12T09:00:01.480Z,55.81
2017-07-12T09:01:01.812Z,56.96
2017-07-12T09:02:01.816Z,58.42
2017-07-12T09:03:01.487Z,58.51
2017-07-12T09:04:01.491Z,55.83
2017-07-12T09:05:01.487Z,55.55
2017-07-12T09:06:01.819Z,56.22
2017-07-12T09:07:01.822Z,56.32
2017-07-12T09:08:01.496Z,55.83
2017-07-12T09:09:01.826Z,56.1
2017-07-12T09:10:01.516Z,56.2
2017-07-12T09:11:01.501Z,56.96
2017-07-12T09:12:01.828Z,56.1
2017-07-12T09:13:01.834Z,56.65
2017-07-12T09:14:01.833Z,57.04
2017-07-12T09:15:01.851Z,57.14
2017-07-12T09:16:01.508Z,58.75
2017-07-12T09:17:01.513Z,58.26
2017-07-12T09:18:01.511Z,59.48
2017-07-12T09:19:01.513Z,60.64
2017-07-12T09:20:01.846Z,60.77
2017-07-12T09:21:01.846Z,60.68
2017-07-12T09:22:01.520Z,62.7
2017-07-12T09:23:01.519Z,61.38
2017-07-12T09:24:01.853Z,60.22
2017-07-12T09:34:01.873Z,60.41
2017-07-12T09:35:01.879Z,59.45
2017-07-12T09:36:01.885Z,57.52
2017-07-12T09:37:02.123Z,57.84
2017-07-12T09:38:01.546Z,58.42
2017-07-12T09:39:01.879Z,58.51
2017-07-12T09:40:01.549Z,58.35
2017-07-12T09:41:01.554Z,57.57
2017-07-12T09:42:01.555Z,56.99
2017-07-12T09:43:01.883Z,57.09
2017-07-12T09:44:01.558Z,57.09
2017-07-12T09:45:01.560Z,57.03
2017-07-12T09:46:01.892Z,55.19
2017-07-12T09:47:01.577Z,56.45
2017-07-12T09:48:01.917Z,56.93
2017-07-12T09:49:01.590Z,57.03
2017-07-12T09:50:01.571Z,57.6
2017-07-12T09:51:01.900Z,57.34
2017-07-12T09:52:01.913Z,56.47
2017-07-12T09:53:01.579Z,55.15
2017-07-12T09:54:01.581Z,55.53
2017-07-12T09:55:01.583Z,56.02
2017-07-12T09:56:01.914Z,54.57
2017-07-12T09:57:01.591Z,55.21
2017-07-12T09:58:01.593Z,56.95
2017-07-12T09:59:01.594Z,58.57
2017-07-12T10:00:01.619Z,58.47
2017-07-12T10:01:01.600Z,56.99
2017-07-12T10:02:01.932Z,56.8
2017-07-12T10:03:01.604Z,56.22
2017-07-12T10:04:01.944Z,58.35
2017-07-12T10:05:01.623Z,59.02
2017-07-12T10:06:01.944Z,57.48
2017-07-12T10:07:01.941Z,57.03
2017-07-12T10:08:01.616Z,57.09
2017-07-12T10:09:01.948Z,57.29
2017-07-12T10:10:01.950Z,56.77
2017-07-12T10:11:01.624Z,58.32
2017-07-12T10:12:01.628Z,58.1
2017-07-12T10:13:01.635Z,57.14
2017-07-12T10:14:01.630Z,54.31
2017-07-12T10:15:01.635Z,55.66
2017-07-12T10:16:01.635Z,56.88
2017-07-12T10:17:01.637Z,58.4
2017-07-12T10:18:01.638Z,58.88
2017-07-12T10:19:01.639Z,58.78
2017-07-12T10:20:01.640Z,60.13
2017-07-12T10:21:01.642Z,60.13
2017-07-12T10:22:01.642Z,60.2
2017-07-12T10:23:01.972Z,60.87
2017-07-12T10:24:01.645Z,61.65
2017-07-12T10:25:01.648Z,61.07
2017-07-12T10:26:01.650Z,60.49
2017-07-12T10:27:01.652Z,61.16
2017-07-12T10:28:01.651Z,60.61
2017-07-12T10:29:01.655Z,62.15
2017-07-12T10:30:01.655Z,58.72
2017-07-12T10:31:01.987Z,58.52
2017-07-12T10:32:01.986Z,58.45
2017-07-12T10:33:01.657Z,56.04
2017-07-12T10:34:01.658Z,58.45
2017-07-12T10:35:01.658Z,57.46
2017-07-12T10:36:01.985Z,58.04
2017-07-12T10:37:01.661Z,58.52
2017-07-12T10:38:01.662Z,58.33
2017-07-12T10:39:01.660Z,59.27
2017-07-12T10:40:01.663Z,58.49
2017-07-12T10:41:01.664Z,60.61
2017-07-12T10:42:01.664Z,60.61
2017-07-12T10:43:01.679Z,61.74
2017-07-12T10:44:01.995Z,63.38
2017-07-12T10:45:01.995Z,64.43
2017-07-12T10:46:01.997Z,62.41
2017-07-12T10:47:01.670Z,63.47
2017-07-12T10:48:01.668Z,64.59
2017-07-12T10:49:01.669Z,64.66
2017-07-12T10:50:01.996Z,64.86
2017-07-12T10:51:01.685Z,66.3
2017-07-12T10:52:01.669Z,68.13
2017-07-12T10:53:01.669Z,68.19
2017-07-12T10:54:01.671Z,67.42
2017-07-12T10:55:02.004Z,67.8
2017-07-12T10:56:02.001Z,68.86
2017-07-12T10:57:01.998Z,69.53
2017-07-12T10:58:02.028Z,70.94
2017-07-12T10:59:01.674Z,70.94
2017-07-12T11:00:01.680Z,73.54
2017-07-12T11:01:01.684Z,75.17
2017-07-12T11:02:01.693Z,75.94
2017-07-12T11:03:01.997Z,75.75
2017-07-12T11:04:02.001Z,74.55
2017-07-12T11:05:01.669Z,74.55
2017-07-12T11:06:01.666Z,75.07
2017-07-12T11:07:01.670Z,74.3
2017-07-12T11:08:01.666Z,75.07
2017-07-12T11:09:01.994Z,75.9
2017-07-12T11:10:01.663Z,74.02
2017-07-12T11:11:01.990Z,74.11
2017-07-12T11:12:02.016Z,75.75
2017-07-12T11:13:01.994Z,74.94
2017-07-12T11:14:01.664Z,75.37
2017-07-12T11:15:01.660Z,76.04
2017-07-12T11:16:02.015Z,76.14
2017-07-12T11:17:01.661Z,75.75
2017-07-12T11:18:01.990Z,76.42
2017-07-12T11:19:01.658Z,75.65
2017-07-12T11:20:01.659Z,75.37
2017-07-12T11:21:02.009Z,79.21
2017-07-12T11:22:01.986Z,79.4
2017-07-12T11:23:01.655Z,78.92
2017-07-12T11:24:01.981Z,79.5
2017-07-12T11:25:01.981Z,80.36
2017-07-12T11:26:01.652Z,79.4
2017-07-12T11:27:01.654Z,78.92
2017-07-12T11:28:01.656Z,79.79
2017-07-12T11:29:01.653Z,80.55
2017-07-12T11:30:01.651Z,80.84
2017-07-12T11:31:01.649Z,78.25
2017-07-12T11:32:01.650Z,80.07
2017-07-12T11:33:01.648Z,83.15
2017-07-12T11:34:01.977Z,84.69
2017-07-12T11:35:01.664Z,81.99
2017-07-12T11:36:01.648Z,82.48
2017-07-12T11:37:01.974Z,82.29
2017-07-12T11:38:01.643Z,82.86
2017-07-12T11:39:01.975Z,83.73
2017-07-12T11:40:01.980Z,84.98
2017-07-12T11:41:01.641Z,85.75
2017-07-12T11:42:01.970Z,86.13
2017-07-12T11:43:01.642Z,88.24
2017-07-12T11:44:01.640Z,89.69
2017-07-12T11:45:01.968Z,90.36
2017-07-12T11:46:01.636Z,88.73
2017-07-12T11:47:01.636Z,89.11
2017-07-12T11:48:01.967Z,91.71
2017-07-12T11:49:01.966Z,91.22
2017-07-12T11:50:01.635Z,89.93
2017-07-12T11:51:01.974Z,91.28
2017-07-12T11:52:01.973Z,89.26
2017-07-12T11:53:01.960Z,89.16
2017-07-12T11:54:01.632Z,89.45
2017-07-12T11:55:01.961Z,91.37
2017-07-12T11:56:01.628Z,91.08
2017-07-12T11:57:01.962Z,89.54
2017-07-12T11:58:01.958Z,89.26
2017-07-12T11:59:01.628Z,87.53
2017-07-12T12:00:01.626Z,86.9
2017-07-12T12:01:01.624Z,85.94
2017-07-12T12:02:01.637Z,88.82
2017-07-12T12:03:01.657Z,88.53
2017-07-12T12:04:01.622Z,88.73
2017-07-12T12:05:01.640Z,85.65
2017-07-12T12:06:01.619Z,83.92
2017-07-12T12:07:01.949Z,83.59
2017-07-12T12:08:01.619Z,83.78
2017-07-12T12:09:01.618Z,83.2
2017-07-12T12:10:01.946Z,83.87
2017-07-12T12:11:01.618Z,85.41
2017-07-12T12:12:01.952Z,87.53
2017-07-12T12:13:01.614Z,87.43
2017-07-12T12:14:01.612Z,87.24
2017-07-12T12:15:01.611Z,90.03
2017-07-12T12:16:01.616Z,91.47
2017-07-12T12:17:01.611Z,92.81
2017-07-12T12:18:01.947Z,91.47
2017-07-12T12:19:01.608Z,90.7
2017-07-12T12:20:01.607Z,91.22
2017-07-12T12:21:01.605Z,91.32
2017-07-12T12:22:01.605Z,91.9
2017-07-12T12:23:01.605Z,92.19
2017-07-12T12:24:01.942Z,92.76
2017-07-12T12:25:01.934Z,92.86
2017-07-12T12:26:01.822Z,92.86
2017-07-12T12:27:01.601Z,91.99
2017-07-12T12:28:01.939Z,92.29
2017-07-12T12:29:01.945Z,93.82
2017-07-12T12:30:01.926Z,94.21
2017-07-12T12:31:01.935Z,94.64
2017-07-12T12:32:01.615Z,95.5
2017-07-12T12:33:01.921Z,94.45
2017-07-12T12:34:01.593Z,89.36
2017-07-12T12:35:01.594Z,91.47
2017-07-12T12:36:01.591Z,94.49
2017-07-12T12:37:01.594Z,94.83
2017-07-12T12:38:01.588Z,93.01
2017-07-12T12:39:01.928Z,94.06
2017-07-12T12:40:01.604Z,95.5
2017-07-12T12:41:01.588Z,95.26
2017-07-12T12:42:01.586Z,95.45
2017-07-12T12:43:01.584Z,92.57
2017-07-12T12:44:01.587Z,90.89
2017-07-12T12:45:01.909Z,90.5
2017-07-12T12:46:01.911Z,91.46
2017-07-12T12:47:01.583Z,91.27
2017-07-12T12:48:01.581Z,91.36
2017-07-12T12:49:01.580Z,91.46
2017-07-12T12:50:01.581Z,90.41
2017-07-12T12:51:01.580Z,91.13
2017-07-12T12:52:01.909Z,91.31
2017-07-12T12:53:01.578Z,91.31
2017-07-12T12:54:01.904Z,90.64
2017-07-12T12:55:01.905Z,88.91
2017-07-12T12:56:01.911Z,86.89
2017-07-12T12:57:01.576Z,86.12
2017-07-12T12:58:01.585Z,85.83
2017-07-12T12:59:02.181Z,85.97
2017-07-12T13:00:01.912Z,87.12
2017-07-12T13:01:01.575Z,87.8
2017-07-12T13:02:01.575Z,87.07
2017-07-12T13:03:01.574Z,85.91